createdAt,value
2022-09-12T00:01:11.859Z,20.08
2022-09-12T00:03:40.407Z,20.75
2022-09-12T00:06:12.022Z,20.67
2022-09-12T00:08:39.702Z,20.48
2022-09-12T00:11:08.430Z,21.70
2022-09-12T00:13:39.498Z,21.98
2022-09-12T00:16:14.882Z,22.20
2022-09-12T00:18:47.132Z,20.60
2022-09-12T00:21:15.872Z,21.92
2022-09-12T00:23:42.997Z,21.87
2022-09-12T00:26:09.742Z,20.92
2022-09-12T00:28:39.046Z,21.50
2022-09-12T00:31:07.486Z,20.52
2022-09-12T00:33:35.421Z,20.95
2022-09-12T00:36:07.326Z,20.85
2022-09-12T00:38:34.578Z,20.33
2022-09-12T00:41:01.341Z,20.30
2022-09-12T00:43:37.714Z,19.35
2022-09-12T00:46:12.470Z,20.58
2022-09-12T00:48:46.077Z,20.17
2022-09-12T00:51:15.073Z,20.50
2022-09-12T00:53:46.303Z,21.48
2022-09-12T00:56:15.592Z,20.60
2022-09-12T00:58:49.064Z,19.92
2022-09-12T01:01:15.908Z,21.15
2022-09-12T01:03:43.497Z,21.15
2022-09-12T01:06:16.211Z,20.30
2022-09-12T01:08:44.726Z,20.52
2022-09-12T01:11:12.511Z,20.50
2022-09-12T01:13:40.089Z,20.52
2022-09-12T01:16:08.521Z,20.83
2022-09-12T01:18:48.316Z,20.35
2022-09-12T01:21:24.700Z,19.95
2022-09-12T01:24:25.667Z,21.27
2022-09-12T01:27:36.428Z,21.05
2022-09-12T01:30:44.759Z,21.85
2022-09-12T01:33:33.984Z,21.80
2022-09-12T01:36:11.363Z,19.80
2022-09-12T01:38:43.810Z,21.23
2022-09-12T01:41:21.731Z,20.50
2022-09-12T01:43:52.314Z,21.65
2022-09-12T01:46:24.111Z,21.10
2022-09-12T01:48:57.495Z,22.05
2022-09-12T01:51:28.171Z,20.65
2022-09-12T01:54:01.684Z,21.33
2022-09-12T01:56:33.207Z,21.13
2022-09-12T01:59:06.322Z,21.80
2022-09-12T02:01:36.339Z,22.45
2022-09-12T02:04:11.586Z,22.45
2022-09-12T02:06:44.222Z,22.27
2022-09-12T02:09:17.689Z,21.60
2022-09-12T02:11:46.045Z,19.90
2022-09-12T02:16:45.642Z,19.45
2022-09-12T02:19:17.089Z,20.77
2022-09-12T02:21:48.979Z,21.33
2022-09-12T02:24:17.515Z,22.02
2022-09-12T02:26:49.558Z,21.15
2022-09-12T02:29:17.186Z,20.58
2022-09-12T02:31:46.591Z,19.65
2022-09-12T02:34:26.674Z,20.42
2022-09-12T02:37:03.574Z,21.27
2022-09-12T02:39:30.337Z,20.65
2022-09-12T02:42:00.364Z,21.40
2022-09-12T02:44:29.607Z,21.17
2022-09-12T02:47:01.104Z,23.02
2022-09-12T02:49:29.811Z,22.63
2022-09-12T02:51:56.651Z,22.70
2022-09-12T02:54:24.903Z,22.05
2022-09-12T02:56:52.380Z,22.42
2022-09-12T02:59:21.801Z,23.38
2022-09-12T03:02:03.851Z,24.08
2022-09-12T03:04:52.138Z,24.65
2022-09-12T03:07:30.312Z,23.52
2022-09-12T03:10:07.690Z,24.15
2022-09-12T03:12:46.914Z,24.42
2022-09-12T03:15:25.701Z,22.08
2022-09-12T03:18:04.421Z,23.75
2022-09-12T03:20:46.135Z,22.42
2022-09-12T03:23:24.361Z,21.73
2022-09-12T03:25:57.048Z,21.80
2022-09-12T03:28:24.156Z,22.42
2022-09-12T03:30:51.866Z,21.10
2022-09-12T03:33:20.261Z,22.33
2022-09-12T03:35:50.420Z,22.83
2022-09-12T03:38:17.841Z,23.73
2022-09-12T03:40:44.852Z,24.52
2022-09-12T03:43:11.974Z,23.63
2022-09-12T03:45:39.632Z,24.70
2022-09-12T03:48:06.448Z,26.77
2022-09-12T03:50:33.320Z,25.92
2022-09-12T03:53:02.286Z,24.98
2022-09-12T03:55:29.040Z,25.63
2022-09-12T03:57:55.924Z,26.38
2022-09-12T04:00:23.417Z,25.02
2022-09-12T04:02:54.474Z,24.02
2022-09-12T04:05:21.213Z,23.95
2022-09-12T04:07:48.536Z,22.80
2022-09-12T04:10:16.811Z,21.85
2022-09-12T04:12:43.788Z,22.73
2022-09-12T04:15:11.437Z,22.20
2022-09-12T04:17:38.475Z,23.65
2022-09-12T04:20:06.061Z,23.95
2022-09-12T04:22:33.578Z,24.65
2022-09-12T04:25:00.484Z,26.50
2022-09-12T04:27:28.789Z,26.23
2022-09-12T04:29:56.253Z,25.95
2022-09-12T04:32:23.006Z,24.73
2022-09-12T04:34:49.767Z,25.60
2022-09-12T04:37:17.129Z,26.85
2022-09-12T04:39:43.925Z,26.08
2022-09-12T04:42:10.724Z,28.58
2022-09-12T04:44:39.406Z,27.83
2022-09-12T04:47:06.260Z,26.87
2022-09-12T04:49:33.411Z,29.52
2022-09-12T04:52:01.024Z,27.92
2022-09-12T04:54:27.820Z,28.15
2022-09-12T04:56:54.888Z,29.10
2022-09-12T04:59:22.765Z,32.65
2022-09-12T05:01:50.917Z,33.05
2022-09-12T05:04:18.001Z,33.53
2022-09-12T05:06:45.335Z,34.38
2022-09-12T05:09:13.341Z,33.72
2022-09-12T05:12:03.332Z,35.22
2022-09-12T05:14:29.584Z,32.38
2022-09-12T05:16:57.786Z,34.95
2022-09-12T05:19:24.502Z,35.50
2022-09-12T05:21:51.880Z,35.35
2022-09-12T05:24:18.668Z,33.72
2022-09-12T05:26:45.391Z,33.13
2022-09-12T05:29:12.720Z,35.17
2022-09-12T05:31:39.523Z,34.30
2022-09-12T05:34:08.215Z,34.53
2022-09-12T05:36:36.298Z,36.50
2022-09-12T05:39:03.610Z,34.83
2022-09-12T05:41:31.618Z,34.03
2022-09-12T05:44:00.764Z,34.17
2022-09-12T05:46:29.873Z,34.05
2022-09-12T05:48:57.297Z,36.50
2022-09-12T05:51:28.099Z,36.83
2022-09-12T05:53:56.534Z,36.45
2022-09-12T05:56:24.960Z,36.25
2022-09-12T05:58:54.395Z,37.88
2022-09-12T06:01:22.979Z,35.75
2022-09-12T06:03:51.028Z,36.13
2022-09-12T06:06:20.135Z,34.03
2022-09-12T06:08:50.375Z,34.60
2022-09-12T06:11:20.731Z,35.17
2022-09-12T06:13:47.992Z,34.92
2022-09-12T06:16:16.711Z,34.28
2022-09-12T06:18:47.642Z,32.17
2022-09-12T06:21:14.539Z,32.83
2022-09-12T06:23:41.686Z,32.78
2022-09-12T06:26:10.936Z,29.42
2022-09-12T06:28:40.391Z,29.83
2022-09-12T06:31:09.140Z,30.85
2022-09-12T06:33:39.308Z,32.53
2022-09-12T06:36:12.193Z,29.77
2022-09-12T06:38:40.551Z,31.88
2022-09-12T06:41:09.323Z,32.45
2022-09-12T06:43:37.977Z,32.05
2022-09-12T06:46:05.913Z,29.73
2022-09-12T06:48:39.579Z,33.42
2022-09-12T06:51:11.759Z,34.33
2022-09-12T06:53:40.088Z,40.03
2022-09-12T06:56:09.134Z,38.05
2022-09-12T06:58:38.209Z,35.22
2022-09-12T07:01:07.002Z,30.35
2022-09-12T07:06:05.613Z,23.85
2022-09-12T07:08:32.355Z,23.17
2022-09-12T07:10:59.535Z,22.00
2022-09-12T07:13:27.236Z,22.45
2022-09-12T07:15:55.287Z,23.40
2022-09-12T07:18:22.150Z,24.30
2022-09-12T07:20:49.494Z,23.02
2022-09-12T07:23:16.228Z,24.08
2022-09-12T07:25:42.973Z,22.42
2022-09-12T07:28:10.358Z,23.55
2022-09-12T07:30:37.333Z,22.65
2022-09-12T07:33:05.583Z,21.00
2022-09-12T07:37:59.920Z,20.60
2022-09-12T07:40:26.613Z,19.73
2022-09-12T07:42:53.954Z,20.55
2022-09-12T07:45:20.700Z,20.70
2022-09-12T07:47:47.477Z,20.77
2022-09-12T07:50:16.331Z,19.13
2022-09-12T07:52:49.184Z,20.52
2022-09-12T07:55:19.056Z,20.95
2022-09-12T07:57:48.709Z,22.08
2022-09-12T08:00:16.081Z,20.05
2022-09-12T08:02:43.537Z,20.05
2022-09-12T08:05:10.341Z,22.20
2022-09-12T08:07:38.399Z,19.73
2022-09-12T08:12:32.902Z,18.10
2022-09-12T08:14:59.612Z,16.75
2022-09-12T08:17:27.132Z,20.13
2022-09-12T08:19:53.862Z,20.40
2022-09-12T08:22:20.590Z,18.52
2022-09-12T08:24:49.549Z,18.55
2022-09-12T08:27:16.279Z,20.13
2022-09-12T08:29:43.083Z,19.17
2022-09-12T08:32:10.465Z,17.60
2022-09-12T08:34:37.247Z,17.83
2022-09-12T08:37:04.056Z,17.77
2022-09-12T08:39:31.377Z,17.40
2022-09-12T08:42:02.205Z,18.48
2022-09-12T08:44:59.089Z,19.30
2022-09-12T08:47:30.296Z,17.38
2022-09-12T08:50:06.211Z,17.38
2022-09-12T08:52:39.004Z,17.73
2022-09-12T08:55:12.130Z,17.70
2022-09-12T08:57:40.795Z,16.33
2022-09-12T09:00:13.579Z,15.93
2022-09-12T09:03:09.208Z,16.30
2022-09-12T09:05:45.978Z,16.65
2022-09-12T09:08:34.393Z,16.60
2022-09-12T09:11:09.707Z,16.77
2022-09-12T09:13:54.743Z,16.65
2022-09-12T09:16:30.818Z,13.65
2022-09-12T09:19:03.121Z,15.65
2022-09-12T09:21:34.601Z,13.73
2022-09-12T09:24:05.476Z,14.82
2022-09-12T09:26:41.002Z,16.33
2022-09-12T09:29:16.461Z,16.02
2022-09-12T09:31:47.117Z,14.30
2022-09-12T09:34:19.553Z,13.98
2022-09-12T09:36:50.745Z,15.65
2022-09-12T09:39:34.863Z,16.75
2022-09-12T09:42:24.563Z,11.88
2022-09-12T09:44:55.939Z,14.85
2022-09-12T09:47:22.795Z,14.90
2022-09-12T09:49:49.735Z,13.40
2022-09-12T09:52:24.680Z,13.27
2022-09-12T09:54:55.162Z,12.05
2022-09-12T09:57:43.130Z,9.70
2022-09-12T10:00:29.700Z,9.70
2022-09-12T10:03:28.211Z,10.60
2022-09-12T10:05:58.746Z,9.07
2022-09-12T10:08:28.200Z,9.65
2022-09-12T10:11:00.704Z,10.05
2022-09-12T10:13:36.313Z,7.45
2022-09-12T10:16:06.612Z,8.73
2022-09-12T10:18:39.730Z,7.45
2022-09-12T10:21:26.844Z,9.23
2022-09-12T10:24:07.224Z,8.32
2022-09-12T10:26:38.659Z,8.18
2022-09-12T10:29:15.026Z,7.38
2022-09-12T10:31:50.462Z,6.90
2022-09-12T10:34:24.957Z,8.05
2022-09-12T10:36:54.798Z,7.47
2022-09-12T10:39:22.371Z,7.32
2022-09-12T10:41:49.300Z,7.00
2022-09-12T10:44:18.384Z,6.25
2022-09-12T10:46:47.119Z,6.80
2022-09-12T10:49:28.932Z,5.90
2022-09-12T10:51:57.854Z,7.80
2022-09-12T10:54:27.125Z,4.85
2022-09-12T10:57:21.677Z,6.75
2022-09-12T11:00:04.224Z,6.30
2022-09-12T11:02:45.926Z,7.00
2022-09-12T11:05:22.862Z,5.18
2022-09-12T11:07:54.929Z,7.05
2022-09-12T11:10:37.337Z,6.57
2022-09-12T11:13:21.399Z,6.78
2022-09-12T11:16:01.470Z,5.13
2022-09-12T11:18:53.725Z,7.10
2022-09-12T11:21:38.217Z,7.15
2022-09-12T11:24:32.019Z,4.90
2022-09-12T11:27:20.098Z,6.35
2022-09-12T11:29:50.051Z,4.40
2022-09-12T11:32:49.846Z,4.78
2022-09-12T11:35:24.003Z,6.65
2022-09-12T11:38:06.104Z,5.72
2022-09-12T11:40:40.367Z,5.60
2022-09-12T11:43:18.912Z,3.20
2022-09-12T11:45:47.326Z,4.45
2022-09-12T11:48:21.356Z,4.15
2022-09-12T11:50:49.539Z,4.40
2022-09-12T11:53:21.741Z,4.80
2022-09-12T11:55:55.267Z,3.85
2022-09-12T11:58:25.919Z,3.63
2022-09-12T12:00:55.872Z,4.22
2022-09-12T12:03:32.006Z,4.53
2022-09-12T12:06:03.754Z,5.38
2022-09-12T12:08:37.337Z,4.90
2022-09-12T12:11:05.840Z,3.53
2022-09-12T12:13:35.345Z,3.45
2022-09-12T12:16:06.325Z,3.63
2022-09-12T12:18:37.303Z,3.03
2022-09-12T12:21:33.545Z,3.78
2022-09-12T12:24:14.231Z,3.50
2022-09-12T12:26:44.084Z,3.75
2022-09-12T12:29:12.086Z,2.83
2022-09-12T12:32:14.624Z,3.00
2022-09-12T12:34:43.096Z,3.40
2022-09-12T12:37:52.750Z,3.08
2022-09-12T12:40:27.303Z,3.15
2022-09-12T12:43:00.199Z,4.10
2022-09-12T12:46:01.353Z,4.20
2022-09-12T12:48:44.539Z,3.95
2022-09-12T12:51:31.709Z,4.25
2022-09-12T12:54:01.383Z,4.20
2022-09-12T12:56:39.443Z,4.22
2022-09-12T12:59:17.710Z,3.50
2022-09-12T13:01:54.244Z,3.92
2022-09-12T13:04:25.131Z,4.30
2022-09-12T13:06:59.144Z,4.10
2022-09-12T13:09:32.302Z,4.00
2022-09-12T13:12:03.405Z,3.53
2022-09-12T13:14:48.516Z,3.08
2022-09-12T13:17:21.847Z,3.30
2022-09-12T13:19:49.760Z,2.85
2022-09-12T13:22:17.162Z,3.72
2022-09-12T13:24:46.480Z,3.25
2022-09-12T13:27:18.744Z,3.10
2022-09-12T13:29:46.142Z,3.92
2022-09-12T13:32:13.535Z,3.60
2022-09-12T13:34:55.756Z,3.60
2022-09-12T13:37:39.737Z,3.92
2022-09-12T13:40:27.323Z,3.25
2022-09-12T13:45:38.248Z,3.13
2022-09-12T13:48:10.183Z,3.00
2022-09-12T13:50:41.415Z,2.65
2022-09-12T13:53:15.690Z,2.60
2022-09-12T13:55:48.289Z,3.08
2022-09-12T13:58:19.148Z,3.28
2022-09-12T14:00:46.128Z,3.15
2022-09-12T14:03:26.556Z,2.92
2022-09-12T14:05:56.987Z,2.88
2022-09-12T14:08:24.584Z,3.05
2022-09-12T14:10:52.684Z,3.23
2022-09-12T14:13:22.203Z,3.17
2022-09-12T14:15:51.183Z,2.67
2022-09-12T14:18:26.371Z,2.50
2022-09-12T14:20:54.678Z,2.70
2022-09-12T14:23:28.991Z,3.17
2022-09-12T14:26:01.460Z,2.65
2022-09-12T14:28:30.314Z,2.97
2022-09-12T14:33:20.099Z,3.50
2022-09-12T14:35:49.307Z,2.95
2022-09-12T14:38:24.584Z,3.13
2022-09-12T14:40:58.903Z,2.78
2022-09-12T14:43:28.124Z,2.60
2022-09-12T14:45:58.815Z,2.95
2022-09-12T14:48:30.976Z,2.55
2022-09-12T14:51:00.872Z,3.00
2022-09-12T14:53:32.644Z,2.50
2022-09-12T14:56:11.966Z,3.00
2022-09-12T14:58:42.494Z,2.70
2022-09-12T15:01:25.247Z,2.85
2022-09-12T15:03:55.363Z,2.40
2022-09-12T15:06:27.407Z,2.10
2022-09-12T15:08:55.778Z,2.47
2022-09-12T15:11:23.514Z,2.47
2022-09-12T15:13:50.466Z,2.80
2022-09-12T15:16:17.269Z,2.90
2022-09-12T15:18:44.760Z,3.20
2022-09-12T15:21:17.247Z,2.70
2022-09-12T15:23:46.996Z,2.67
2022-09-12T15:26:15.632Z,3.60
2022-09-12T15:31:24.326Z,2.85
2022-09-12T15:33:51.110Z,2.80
2022-09-12T15:36:21.869Z,3.03
2022-09-12T15:38:49.014Z,3.13
2022-09-12T15:41:17.939Z,3.35
2022-09-12T15:43:45.748Z,2.80
2022-09-12T15:46:14.334Z,3.20
2022-09-12T15:48:41.212Z,3.30
2022-09-12T15:51:15.214Z,2.65
2022-09-12T15:53:44.877Z,2.30
2022-09-12T15:56:14.921Z,2.22
2022-09-12T15:58:57.141Z,2.67
2022-09-12T16:01:25.599Z,2.20
2022-09-12T16:03:52.431Z,1.83
2022-09-12T16:06:19.214Z,2.00
2022-09-12T16:08:47.959Z,2.40
2022-09-12T16:11:19.514Z,2.40
2022-09-12T16:13:46.840Z,2.58
2022-09-12T16:16:13.646Z,2.03
2022-09-12T16:18:41.128Z,2.50
2022-09-12T16:21:12.777Z,2.25
2022-09-12T16:23:42.708Z,2.20
2022-09-12T16:28:38.184Z,2.30
2022-09-12T16:31:07.162Z,1.90
2022-09-12T16:33:34.686Z,2.17
2022-09-12T16:36:02.322Z,2.00
2022-09-12T16:38:29.077Z,1.90
2022-09-12T16:41:00.158Z,2.42
2022-09-12T16:43:29.203Z,2.47
2022-09-12T16:46:03.187Z,2.85
2022-09-12T16:48:30.752Z,2.60
2022-09-12T16:50:58.882Z,2.45
2022-09-12T16:53:25.605Z,2.72
2022-09-12T16:55:52.320Z,3.38
2022-09-12T16:58:19.703Z,2.58
2022-09-12T17:00:47.759Z,3.40
2022-09-12T17:03:14.809Z,3.20
2022-09-12T17:05:42.167Z,2.13
2022-09-12T17:08:08.947Z,2.30
2022-09-12T17:10:35.707Z,2.53
2022-09-12T17:13:03.067Z,2.70
2022-09-12T17:15:29.784Z,2.88
2022-09-12T17:17:57.835Z,3.05
2022-09-12T17:22:51.784Z,3.42
2022-09-12T17:25:18.506Z,3.15
2022-09-12T17:27:45.840Z,4.30
2022-09-12T17:30:12.783Z,3.67
2022-09-12T17:32:39.497Z,4.47
2022-09-12T17:35:08.748Z,3.63
2022-09-12T17:40:02.799Z,3.00
2022-09-12T17:42:30.344Z,2.83
2022-09-12T17:44:57.050Z,3.30
2022-09-12T17:47:23.778Z,3.65
2022-09-12T17:49:51.094Z,4.40
2022-09-12T17:52:19.755Z,4.55
2022-09-12T17:57:13.710Z,4.30
2022-09-12T17:59:40.509Z,4.35
2022-09-12T18:02:10.922Z,4.88
2022-09-12T18:04:38.430Z,4.72
2022-09-12T18:07:05.193Z,5.50
2022-09-12T18:09:34.614Z,5.33
2022-09-12T18:12:02.437Z,6.80
2022-09-12T18:14:29.281Z,5.55
2022-09-12T18:16:56.230Z,6.15
2022-09-12T18:19:24.019Z,6.03
2022-09-12T18:21:50.806Z,5.47
2022-09-12T18:24:17.678Z,5.53
2022-09-12T18:26:46.480Z,5.97
2022-09-12T18:29:14.335Z,6.05
2022-09-12T18:31:41.158Z,5.57
2022-09-12T18:34:08.654Z,6.00
2022-09-12T18:36:35.393Z,6.10
2022-09-12T18:39:02.180Z,5.53
2022-09-12T18:41:29.642Z,4.90
2022-09-12T18:44:00.142Z,4.85
2022-09-12T18:46:28.634Z,5.63
2022-09-12T18:48:56.691Z,5.05
2022-09-12T18:51:26.476Z,5.90
2022-09-12T18:53:54.771Z,5.72
2022-09-12T18:56:23.061Z,6.35
2022-09-12T18:58:51.655Z,6.70
2022-09-12T19:01:21.974Z,6.20
2022-09-12T19:03:49.693Z,6.30
2022-09-12T19:06:19.124Z,6.05
2022-09-12T19:08:48.234Z,6.43
2022-09-12T19:11:16.300Z,5.93
2022-09-12T19:13:44.571Z,6.35
2022-09-12T19:16:13.736Z,6.32
2022-09-12T19:18:42.633Z,6.68
2022-09-12T19:21:14.575Z,7.45
2022-09-12T19:23:42.333Z,6.93
2022-09-12T19:26:11.655Z,6.50
2022-09-12T19:28:38.911Z,6.78
2022-09-12T19:31:07.236Z,6.28
2022-09-12T19:33:34.462Z,6.82
2022-09-12T19:36:04.101Z,6.25
2022-09-12T19:38:31.738Z,6.85
2022-09-12T19:41:01.110Z,6.65
2022-09-12T19:43:30.701Z,7.55
2022-09-12T19:45:58.699Z,7.63
2022-09-12T19:48:25.475Z,7.32
2022-09-12T19:50:52.249Z,7.35
2022-09-12T19:53:20.961Z,6.97
2022-09-12T19:55:47.717Z,7.85
2022-09-12T19:58:14.450Z,8.07
2022-09-12T20:00:41.899Z,7.30
2022-09-12T20:03:08.675Z,8.05
2022-09-12T20:05:38.464Z,7.20
2022-09-12T20:08:08.170Z,7.22
2022-09-12T20:10:36.246Z,7.72
2022-09-12T20:13:03.051Z,7.15
2022-09-12T20:15:30.369Z,6.72
2022-09-12T20:17:57.777Z,7.63
2022-09-12T20:20:24.810Z,6.63
2022-09-12T20:22:53.250Z,6.82
2022-09-12T20:25:20.232Z,7.47
2022-09-12T20:27:48.516Z,7.47
2022-09-12T20:30:17.053Z,7.55
2022-09-12T20:32:44.072Z,8.10
2022-09-12T20:35:10.860Z,7.35
2022-09-12T20:37:38.335Z,7.35
2022-09-12T20:40:05.880Z,7.35
2022-09-12T20:42:32.683Z,7.07
2022-09-12T20:45:01.375Z,6.95
2022-09-12T20:47:28.155Z,7.13
2022-09-12T20:49:54.883Z,8.55
2022-09-12T20:52:22.211Z,6.85
2022-09-12T20:54:48.926Z,6.78
2022-09-12T20:57:15.648Z,7.40
2022-09-12T20:59:42.961Z,7.65
2022-09-12T21:02:14.341Z,8.95
2022-09-12T21:04:41.336Z,8.63
2022-09-12T21:07:08.736Z,9.02
2022-09-12T21:09:35.492Z,9.27
2022-09-12T21:12:02.652Z,9.73
2022-09-12T21:14:30.004Z,9.93
2022-09-12T21:16:56.742Z,9.55
2022-09-12T21:19:24.876Z,9.75
2022-09-12T21:21:52.320Z,10.05
2022-09-12T21:24:19.200Z,9.35
2022-09-12T21:26:45.912Z,10.32
2022-09-12T21:29:13.268Z,10.23
2022-09-12T21:31:39.986Z,9.95
2022-09-12T21:34:06.770Z,10.93
2022-09-12T21:36:35.469Z,10.57
2022-09-12T21:39:02.191Z,10.30
2022-09-12T21:41:28.940Z,10.63
2022-09-12T21:43:56.267Z,10.15
2022-09-12T21:46:23.035Z,10.80
2022-09-12T21:48:49.891Z,10.70
2022-09-12T21:51:17.231Z,9.90
2022-09-12T21:53:45.298Z,10.23
2022-09-12T21:56:12.094Z,10.27
2022-09-12T21:58:39.482Z,10.63
2022-09-12T22:01:06.833Z,10.15
2022-09-12T22:03:33.557Z,9.70
2022-09-12T22:06:03.840Z,10.10
2022-09-12T22:08:32.683Z,10.00
2022-09-12T22:13:28.882Z,9.95
2022-09-12T22:15:55.642Z,9.63
2022-09-12T22:18:22.379Z,10.20
2022-09-12T22:20:50.012Z,9.32
2022-09-12T22:23:18.446Z,9.40
2022-09-12T22:25:47.946Z,9.75
2022-09-12T22:28:16.612Z,8.20
2022-09-12T22:30:47.282Z,8.93
2022-09-12T22:33:14.674Z,9.57
2022-09-12T22:35:41.439Z,8.88
2022-09-12T22:38:08.335Z,9.27
2022-09-12T22:40:35.666Z,9.60
2022-09-12T22:43:02.413Z,10.00
2022-09-12T22:45:30.470Z,9.75
2022-09-12T22:48:00.722Z,9.60
2022-09-12T22:50:28.047Z,9.43
2022-09-12T22:52:54.758Z,10.27
2022-09-12T22:55:22.128Z,10.20
2022-09-12T22:57:48.908Z,10.65
2022-09-12T23:00:15.832Z,10.02
2022-09-12T23:02:44.505Z,9.98
2022-09-12T23:05:11.234Z,11.10
2022-09-12T23:07:37.993Z,9.98
2022-09-12T23:10:06.209Z,10.07
2022-09-12T23:12:32.926Z,10.18
2022-09-12T23:14:59.649Z,10.52
2022-09-12T23:17:27.011Z,10.10
2022-09-12T23:19:55.078Z,10.13
2022-09-12T23:22:21.783Z,10.18
2022-09-12T23:24:49.119Z,9.90
2022-09-12T23:27:15.894Z,10.05
2022-09-12T23:29:42.632Z,9.98
2022-09-12T23:32:09.967Z,11.25
2022-09-12T23:34:36.731Z,11.20
2022-09-12T23:37:04.819Z,10.88
2022-09-12T23:39:32.148Z,10.85
2022-09-12T23:41:58.889Z,10.98
2022-09-12T23:44:25.701Z,11.15
2022-09-12T23:46:53.050Z,10.68
2022-09-12T23:49:19.863Z,10.88
2022-09-12T23:51:46.636Z,10.68
2022-09-12T23:54:15.507Z,11.18
2022-09-12T23:56:42.236Z,11.23
2022-09-12T23:59:08.948Z,10.23
